sensor_id;sensor_type;location;lat;lon;timestamp;pressure;altitude;pressure_sealevel;temperature;humidity
58690;BME280;44470;53.206;-6.106;2023-04-26T00:00:18;101726.50;;;28.45;29.55
58690;BME280;44470;53.206;-6.106;2023-04-26T00:02:46;101743.38;;;28.52;29.86
58690;BME280;44470;53.206;-6.106;2023-04-26T00:05:13;101736.34;;;28.48;29.84
58690;BME280;44470;53.206;-6.106;2023-04-26T00:07:39;101730.16;;;28.44;30.08
58690;BME280;44470;53.206;-6.106;2023-04-26T00:10:05;101726.75;;;28.39;29.82
58690;BME280;44470;53.206;-6.106;2023-04-26T00:12:31;101735.44;;;28.47;29.75
58690;BME280;44470;53.206;-6.106;2023-04-26T00:14:57;101734.50;;;28.48;29.63
58690;BME280;44470;53.206;-6.106;2023-04-26T00:17:23;101734.69;;;28.43;29.65
58690;BME280;44470;53.206;-6.106;2023-04-26T00:19:49;101740.72;;;28.50;29.54
58690;BME280;44470;53.206;-6.106;2023-04-26T00:22:15;101752.34;;;28.54;29.71
58690;BME280;44470;53.206;-6.106;2023-04-26T00:24:41;101734.44;;;28.50;30.03
58690;BME280;44470;53.206;-6.106;2023-04-26T00:27:07;101731.91;;;28.45;29.79
58690;BME280;44470;53.206;-6.106;2023-04-26T00:29:36;101725.56;;;28.46;29.47
58690;BME280;44470;53.206;-6.106;2023-04-26T00:32:02;101731.78;;;28.48;29.86
58690;BME280;44470;53.206;-6.106;2023-04-26T00:34:36;101731.75;;;28.50;29.62
58690;BME280;44470;53.206;-6.106;2023-04-26T00:37:03;101726.13;;;28.54;29.41
58690;BME280;44470;53.206;-6.106;2023-04-26T00:39:29;101729.78;;;28.53;29.48
58690;BME280;44470;53.206;-6.106;2023-04-26T00:41:55;101687.34;;;28.32;29.66
58690;BME280;44470;53.206;-6.106;2023-04-26T00:44:20;101711.06;;;28.47;29.58
58690;BME280;44470;53.206;-6.106;2023-04-26T00:46:46;101700.50;;;28.41;29.76
58690;BME280;44470;53.206;-6.106;2023-04-26T00:49:15;101708.25;;;28.50;29.68
58690;BME280;44470;53.206;-6.106;2023-04-26T00:51:44;101716.50;;;28.47;29.76
58690;BME280;44470;53.206;-6.106;2023-04-26T00:54:11;101713.66;;;28.50;29.49
58690;BME280;44470;53.206;-6.106;2023-04-26T00:56:38;101712.03;;;28.46;29.85
58690;BME280;44470;53.206;-6.106;2023-04-26T00:59:04;101686.41;;;28.33;29.37
58690;BME280;44470;53.206;-6.106;2023-04-26T01:01:29;101714.56;;;28.51;29.53
58690;BME280;44470;53.206;-6.106;2023-04-26T01:03:55;101681.72;;;28.36;29.67
58690;BME280;44470;53.206;-6.106;2023-04-26T01:06:21;101636.66;;;28.13;29.62
58690;BME280;44470;53.206;-6.106;2023-04-26T01:08:47;101677.91;;;28.42;29.61
58690;BME280;44470;53.206;-6.106;2023-04-26T01:11:13;101683.06;;;28.48;29.69
58690;BME280;44470;53.206;-6.106;2023-04-26T01:13:40;101679.41;;;28.49;29.52
58690;BME280;44470;53.206;-6.106;2023-04-26T01:16:07;101684.69;;;28.52;29.58
58690;BME280;44470;53.206;-6.106;2023-04-26T01:18:32;101677.50;;;28.51;29.60
58690;BME280;44470;53.206;-6.106;2023-04-26T01:20:58;101673.84;;;28.52;29.91
58690;BME280;44470;53.206;-6.106;2023-04-26T01:23:26;101665.81;;;28.51;29.71
58690;BME280;44470;53.206;-6.106;2023-04-26T01:25:52;101638.63;;;28.32;29.83
58690;BME280;44470;53.206;-6.106;2023-04-26T01:28:20;101674.88;;;28.50;29.77
58690;BME280;44470;53.206;-6.106;2023-04-26T01:30:46;101634.19;;;28.29;29.66
58690;BME280;44470;53.206;-6.106;2023-04-26T01:33:11;101634.78;;;28.37;29.73
58690;BME280;44470;53.206;-6.106;2023-04-26T01:35:39;101629.59;;;28.31;29.69
58690;BME280;44470;53.206;-6.106;2023-04-26T01:38:04;101643.47;;;28.46;29.98
58690;BME280;44470;53.206;-6.106;2023-04-26T01:40:36;101650.56;;;28.48;29.84
58690;BME280;44470;53.206;-6.106;2023-04-26T01:43:04;101646.91;;;28.49;29.78
58690;BME280;44470;53.206;-6.106;2023-04-26T01:45:30;101649.44;;;28.54;29.72
58690;BME280;44470;53.206;-6.106;2023-04-26T01:48:14;101642.38;;;28.50;29.54
58690;BME280;44470;53.206;-6.106;2023-04-26T01:50:40;101629.28;;;28.39;29.65
58690;BME280;44470;53.206;-6.106;2023-04-26T01:53:05;101647.72;;;28.51;29.78
58690;BME280;44470;53.206;-6.106;2023-04-26T01:55:32;101643.13;;;28.53;29.67
58690;BME280;44470;53.206;-6.106;2023-04-26T01:57:58;101639.59;;;28.51;29.77
58690;BME280;44470;53.206;-6.106;2023-04-26T02:00:24;101638.66;;;28.52;29.79
58690;BME280;44470;53.206;-6.106;2023-04-26T02:02:53;101638.66;;;28.52;29.91
58690;BME280;44470;53.206;-6.106;2023-04-26T02:05:19;101648.53;;;28.53;29.86
58690;BME280;44470;53.206;-6.106;2023-04-26T02:07:44;101641.22;;;28.55;29.58
58690;BME280;44470;53.206;-6.106;2023-04-26T02:10:10;101643.00;;;28.56;29.96
58690;BME280;44470;53.206;-6.106;2023-04-26T02:12:35;101645.56;;;28.60;29.92
58690;BME280;44470;53.206;-6.106;2023-04-26T02:15:01;101642.84;;;28.60;29.65
58690;BME280;44470;53.206;-6.106;2023-04-26T02:17:26;101634.72;;;28.60;29.64
58690;BME280;44470;53.206;-6.106;2023-04-26T02:19:53;101633.78;;;28.61;29.29
58690;BME280;44470;53.206;-6.106;2023-04-26T02:22:20;101630.97;;;28.64;29.67
58690;BME280;44470;53.206;-6.106;2023-04-26T02:24:48;101619.44;;;28.58;29.79
58690;BME280;44470;53.206;-6.106;2023-04-26T02:27:14;101603.56;;;28.49;29.87
58690;BME280;44470;53.206;-6.106;2023-04-26T02:29:40;101589.50;;;28.41;29.71
58690;BME280;44470;53.206;-6.106;2023-04-26T02:32:06;101623.84;;;28.61;29.58
58690;BME280;44470;53.206;-6.106;2023-04-26T02:34:32;101631.88;;;28.63;29.62
58690;BME280;44470;53.206;-6.106;2023-04-26T02:36:57;101632.66;;;28.66;29.73
58690;BME280;44470;53.206;-6.106;2023-04-26T02:39:23;101621.06;;;28.63;29.60
58690;BME280;44470;53.206;-6.106;2023-04-26T02:41:48;101534.84;;;28.09;29.55
58690;BME280;44470;53.206;-6.106;2023-04-26T02:44:14;101621.06;;;28.63;29.82
58690;BME280;44470;53.206;-6.106;2023-04-26T02:46:39;101617.44;;;28.64;29.75
58690;BME280;44470;53.206;-6.106;2023-04-26T02:49:05;101608.47;;;28.62;29.80
58690;BME280;44470;53.206;-6.106;2023-04-26T02:51:31;101610.31;;;28.61;29.61
58690;BME280;44470;53.206;-6.106;2023-04-26T02:53:58;101605.56;;;28.66;29.68
58690;BME280;44470;53.206;-6.106;2023-04-26T02:56:24;101608.28;;;28.66;29.43
58690;BME280;44470;53.206;-6.106;2023-04-26T02:58:49;101606.50;;;28.65;29.54
58690;BME280;44470;53.206;-6.106;2023-04-26T03:01:15;101600.16;;;28.66;29.62
58690;BME280;44470;53.206;-6.106;2023-04-26T03:03:42;101598.38;;;28.65;29.42
58690;BME280;44470;53.206;-6.106;2023-04-26T03:06:07;101579.69;;;28.59;29.46
58690;BME280;44470;53.206;-6.106;2023-04-26T03:08:33;101590.22;;;28.67;29.48
58690;BME280;44470;53.206;-6.106;2023-04-26T03:11:01;101570.81;;;28.55;29.81
58690;BME280;44470;53.206;-6.106;2023-04-26T03:13:27;101588.44;;;28.66;29.57
58690;BME280;44470;53.206;-6.106;2023-04-26T03:15:55;101590.22;;;28.67;29.47
58690;BME280;44470;53.206;-6.106;2023-04-26T03:18:21;101588.44;;;28.66;29.47
58690;BME280;44470;53.206;-6.106;2023-04-26T03:20:47;101584.78;;;28.67;29.53
58690;BME280;44470;53.206;-6.106;2023-04-26T03:23:12;101540.75;;;28.41;29.53
58690;BME280;44470;53.206;-6.106;2023-04-26T03:25:38;101575.84;;;28.65;29.75
58690;BME280;44470;53.206;-6.106;2023-04-26T03:28:04;101579.38;;;28.67;29.73
58690;BME280;44470;53.206;-6.106;2023-04-26T03:30:30;101565.13;;;28.62;29.57
58690;BME280;44470;53.206;-6.106;2023-04-26T03:32:55;101549.28;;;28.52;29.51
58690;BME280;44470;53.206;-6.106;2023-04-26T03:35:21;101565.13;;;28.62;29.36
58690;BME280;44470;53.206;-6.106;2023-04-26T03:37:47;101572.19;;;28.66;29.36
58690;BME280;44470;53.206;-6.106;2023-04-26T03:40:16;101572.19;;;28.66;29.61
58690;BME280;44470;53.206;-6.106;2023-04-26T03:42:44;101579.44;;;28.65;29.61
58690;BME280;44470;53.206;-6.106;2023-04-26T03:45:10;101549.16;;;28.55;29.66
58690;BME280;44470;53.206;-6.106;2023-04-26T03:47:35;101563.25;;;28.64;29.76
58690;BME280;44470;53.206;-6.106;2023-04-26T03:50:01;101567.66;;;28.66;29.65
58690;BME280;44470;53.206;-6.106;2023-04-26T03:52:26;101570.31;;;28.68;29.80
58690;BME280;44470;53.206;-6.106;2023-04-26T03:54:52;101572.13;;;28.67;29.51
58690;BME280;44470;53.206;-6.106;2023-04-26T03:57:18;101574.69;;;28.70;29.86
58690;BME280;44470;53.206;-6.106;2023-04-26T03:59:43;101564.00;;;28.67;29.56
58690;BME280;44470;53.206;-6.106;2023-04-26T04:02:09;101558.53;;;28.69;29.80
58690;BME280;44470;53.206;-6.106;2023-04-26T04:04:35;101552.44;;;28.64;29.49
58690;BME280;44470;53.206;-6.106;2023-04-26T04:07:01;101548.06;;;28.60;29.49
58690;BME280;44470;53.206;-6.106;2023-04-26T04:09:26;101563.81;;;28.72;29.55
58690;BME280;44470;53.206;-6.106;2023-04-26T04:11:52;101515.31;;;28.45;29.60
58690;BME280;44470;53.206;-6.106;2023-04-26T04:14:18;101517.88;;;28.48;29.63
58690;BME280;44470;53.206;-6.106;2023-04-26T04:16:46;101549.50;;;28.68;29.60
58690;BME280;44470;53.206;-6.106;2023-04-26T04:19:12;101553.91;;;28.71;29.57
58690;BME280;44470;53.206;-6.106;2023-04-26T04:21:37;101511.59;;;28.48;29.31
58690;BME280;44470;53.206;-6.106;2023-04-26T04:24:04;101551.22;;;28.71;29.55
58690;BME280;44470;53.206;-6.106;2023-04-26T04:26:30;101536.91;;;28.67;29.56
58690;BME280;44470;53.206;-6.106;2023-04-26T04:28:55;101544.84;;;28.72;29.71
58690;BME280;44470;53.206;-6.106;2023-04-26T04:31:21;101546.59;;;28.73;29.84
58690;BME280;44470;53.206;-6.106;2023-04-26T04:33:47;101530.53;;;28.68;29.65
58690;BME280;44470;53.206;-6.106;2023-04-26T04:36:13;101500.69;;;28.49;29.58
58690;BME280;44470;53.206;-6.106;2023-04-26T04:38:41;101541.19;;;28.73;29.90
58690;BME280;44470;53.206;-6.106;2023-04-26T04:41:08;101536.84;;;28.69;29.18
58690;BME280;44470;53.206;-6.106;2023-04-26T04:43:35;101495.28;;;28.49;29.52
58690;BME280;44470;53.206;-6.106;2023-04-26T04:46:00;101529.69;;;28.68;29.54
58690;BME280;44470;53.206;-6.106;2023-04-26T04:48:26;101543.06;;;28.71;29.70
58690;BME280;44470;53.206;-6.106;2023-04-26T04:50:51;101492.56;;;28.49;29.62
58690;BME280;44470;53.206;-6.106;2023-04-26T04:53:18;101487.38;;;28.45;29.38
58690;BME280;44470;53.206;-6.106;2023-04-26T04:55:44;101542.94;;;28.74;29.32
58690;BME280;44470;53.206;-6.106;2023-04-26T04:58:11;101535.69;;;28.75;29.45
58690;BME280;44470;53.206;-6.106;2023-04-26T05:00:38;101539.34;;;28.74;29.22
58690;BME280;44470;53.206;-6.106;2023-04-26T05:03:14;101549.16;;;28.76;29.75
58690;BME280;44470;53.206;-6.106;2023-04-26T05:05:39;101542.94;;;28.74;29.65
58690;BME280;44470;53.206;-6.106;2023-04-26T05:08:05;101538.38;;;28.75;29.46
58690;BME280;44470;53.206;-6.106;2023-04-26T05:10:33;101537.56;;;28.72;29.34
58690;BME280;44470;53.206;-6.106;2023-04-26T05:12:59;101537.53;;;28.74;29.16
58690;BME280;44470;53.206;-6.106;2023-04-26T05:15:24;101545.69;;;28.72;29.30
58690;BME280;44470;53.206;-6.106;2023-04-26T05:17:50;101528.88;;;28.66;29.56
58690;BME280;44470;53.206;-6.106;2023-04-26T05:20:19;101551.06;;;28.74;29.42
58690;BME280;44470;53.206;-6.106;2023-04-26T05:22:45;101544.69;;;28.75;29.24
58690;BME280;44470;53.206;-6.106;2023-04-26T05:25:11;101500.69;;;28.49;29.42
58690;BME280;44470;53.206;-6.106;2023-04-26T05:27:38;101550.00;;;28.78;29.19
58690;BME280;44470;53.206;-6.106;2023-04-26T05:30:27;101526.34;;;28.61;29.52
58690;BME280;44470;53.206;-6.106;2023-04-26T05:33:11;101555.53;;;28.75;29.45
58690;BME280;44470;53.206;-6.106;2023-04-26T05:35:48;101491.16;;;28.40;29.53
58690;BME280;44470;53.206;-6.106;2023-04-26T05:38:14;101533.25;;;28.68;29.55
58690;BME280;44470;53.206;-6.106;2023-04-26T05:40:39;101504.22;;;28.51;29.53
58690;BME280;44470;53.206;-6.106;2023-04-26T05:43:05;101542.94;;;28.74;29.33
58690;BME280;44470;53.206;-6.106;2023-04-26T05:45:31;101550.03;;;28.77;29.60
58690;BME280;44470;53.206;-6.106;2023-04-26T05:47:58;101546.59;;;28.73;29.16
58690;BME280;44470;53.206;-6.106;2023-04-26T05:50:24;101556.34;;;28.77;29.55
58690;BME280;44470;53.206;-6.106;2023-04-26T05:52:49;101555.53;;;28.75;29.28
58690;BME280;44470;53.206;-6.106;2023-04-26T05:55:15;101560.84;;;28.78;29.49
58690;BME280;44470;53.206;-6.106;2023-04-26T05:57:40;101513.28;;;28.50;29.55
58690;BME280;44470;53.206;-6.106;2023-04-26T06:00:06;101560.84;;;28.78;29.62
58690;BME280;44470;53.206;-6.106;2023-04-26T06:02:39;101534.38;;;28.63;29.57
58690;BME280;44470;53.206;-6.106;2023-04-26T06:05:06;101549.16;;;28.76;29.46
58690;BME280;44470;53.206;-6.106;2023-04-26T06:07:32;101524.50;;;28.62;29.62
58690;BME280;44470;53.206;-6.106;2023-04-26T06:10:00;101542.13;;;28.72;29.57
58690;BME280;44470;53.206;-6.106;2023-04-26T06:12:27;101532.38;;;28.68;29.62
58690;BME280;44470;53.206;-6.106;2023-04-26T06:14:53;101548.34;;;28.74;29.51
58690;BME280;44470;53.206;-6.106;2023-04-26T06:17:22;101550.81;;;28.80;29.59
58690;BME280;44470;53.206;-6.106;2023-04-26T06:19:47;101550.03;;;28.77;29.64
58690;BME280;44470;53.206;-6.106;2023-04-26T06:22:13;101550.81;;;28.80;29.64
58690;BME280;44470;53.206;-6.106;2023-04-26T06:24:38;101547.47;;;28.74;29.48
58690;BME280;44470;53.206;-6.106;2023-04-26T06:27:04;101553.53;;;28.80;29.79
58690;BME280;44470;53.206;-6.106;2023-04-26T06:29:31;101539.41;;;28.72;29.70
58690;BME280;44470;53.206;-6.106;2023-04-26T06:31:57;101533.78;;;28.77;29.87
58690;BME280;44470;53.206;-6.106;2023-04-26T06:34:24;101553.53;;;28.80;29.79
58690;BME280;44470;53.206;-6.106;2023-04-26T06:36:50;101552.56;;;28.81;29.63
58690;BME280;44470;53.206;-6.106;2023-04-26T06:39:16;101562.31;;;28.85;29.60
58690;BME280;44470;53.206;-6.106;2023-04-26T06:41:42;101553.38;;;28.83;29.57
58690;BME280;44470;53.206;-6.106;2023-04-26T06:44:09;101548.84;;;28.84;29.29
58690;BME280;44470;53.206;-6.106;2023-04-26T06:46:38;101519.84;;;28.65;29.57
58690;BME280;44470;53.206;-6.106;2023-04-26T06:49:06;101517.31;;;28.61;29.50
58690;BME280;44470;53.206;-6.106;2023-04-26T06:51:32;101559.63;;;28.85;29.47
58690;BME280;44470;53.206;-6.106;2023-04-26T06:53:57;101554.25;;;28.84;29.74
58690;BME280;44470;53.206;-6.106;2023-04-26T06:56:25;101546.41;;;28.78;29.45
58690;BME280;44470;53.206;-6.106;2023-04-26T06:59:03;101555.16;;;28.84;29.82
58690;BME280;44470;53.206;-6.106;2023-04-26T07:01:30;101566.78;;;28.86;29.83
58690;BME280;44470;53.206;-6.106;2023-04-26T07:04:02;101573.22;;;28.84;29.94
58690;BME280;44470;53.206;-6.106;2023-04-26T07:06:27;101570.28;;;29.09;29.41
58690;BME280;44470;53.206;-6.106;2023-04-26T07:08:53;101527.63;;;28.94;29.62
58690;BME280;44470;53.206;-6.106;2023-04-26T07:11:19;101560.63;;;29.04;29.58
58690;BME280;44470;53.206;-6.106;2023-04-26T07:13:45;101568.78;;;29.02;29.50
58690;BME280;44470;53.206;-6.106;2023-04-26T07:16:10;101567.19;;;28.98;29.01
58690;BME280;44470;53.206;-6.106;2023-04-26T07:18:36;101570.84;;;28.97;29.44
58690;BME280;44470;53.206;-6.106;2023-04-26T07:21:01;101570.84;;;28.97;29.01
58690;BME280;44470;53.206;-6.106;2023-04-26T07:23:28;101550.00;;;28.78;28.76
58690;BME280;44470;53.206;-6.106;2023-04-26T07:25:54;101579.91;;;28.96;28.77
58690;BME280;44470;53.206;-6.106;2023-04-26T07:28:19;101535.75;;;28.73;28.87
58690;BME280;44470;53.206;-6.106;2023-04-26T07:30:45;101569.09;;;28.96;28.77
58690;BME280;44470;53.206;-6.106;2023-04-26T07:33:10;101571.66;;;28.99;28.36
58690;BME280;44470;53.206;-6.106;2023-04-26T07:35:36;101576.13;;;29.00;28.35
58690;BME280;44470;53.206;-6.106;2023-04-26T07:38:01;101562.00;;;28.93;28.45
58690;BME280;44470;53.206;-6.106;2023-04-26T07:40:27;101570.69;;;29.00;28.25
58690;BME280;44470;53.206;-6.106;2023-04-26T07:42:54;101563.75;;;29.13;27.80
58690;BME280;44470;53.206;-6.106;2023-04-26T07:45:19;101569.75;;;29.01;28.12
58690;BME280;44470;53.206;-6.106;2023-04-26T07:47:45;101567.31;;;28.95;28.20
58690;BME280;44470;53.206;-6.106;2023-04-26T07:50:11;101562.25;;;28.87;27.93
58690;BME280;44470;53.206;-6.106;2023-04-26T07:52:37;101540.16;;;28.76;28.27
58690;BME280;44470;53.206;-6.106;2023-04-26T07:55:03;101555.28;;;28.81;27.85
58690;BME280;44470;53.206;-6.106;2023-04-26T07:57:28;101564.38;;;28.80;27.81
58690;BME280;44470;53.206;-6.106;2023-04-26T07:59:54;101562.59;;;28.79;27.86
58690;BME280;44470;53.206;-6.106;2023-04-26T08:02:19;101563.00;;;28.70;27.98
58690;BME280;44470;53.206;-6.106;2023-04-26T08:04:49;101569.00;;;28.56;28.32
58690;BME280;44470;53.206;-6.106;2023-04-26T08:07:17;101569.41;;;28.67;27.72
58690;BME280;44470;53.206;-6.106;2023-04-26T08:09:43;101559.91;;;28.79;27.69
58690;BME280;44470;53.206;-6.106;2023-04-26T08:12:10;101480.84;;;28.28;27.80
58690;BME280;44470;53.206;-6.106;2023-04-26T08:14:36;101562.97;;;28.49;28.30
58690;BME280;44470;53.206;-6.106;2023-04-26T08:17:03;101561.03;;;28.53;28.52
58690;BME280;44470;53.206;-6.106;2023-04-26T08:19:28;101489.31;;;26.83;28.08
58690;BME280;44470;53.206;-6.106;2023-04-26T08:21:57;101574.00;;;26.55;28.98
58690;BME280;44470;53.206;-6.106;2023-04-26T08:24:22;101569.66;;;25.94;29.48
58690;BME280;44470;53.206;-6.106;2023-04-26T08:26:48;101535.53;;;25.65;29.94
58690;BME280;44470;53.206;-6.106;2023-04-26T08:29:13;101557.66;;;26.05;28.68
58690;BME280;44470;53.206;-6.106;2023-04-26T08:31:39;101567.22;;;25.87;28.94
58690;BME280;44470;53.206;-6.106;2023-04-26T08:34:06;101565.41;;;25.59;29.70
58690;BME280;44470;53.206;-6.106;2023-04-26T08:36:41;101546.25;;;25.36;29.54
58690;BME280;44470;53.206;-6.106;2023-04-26T08:39:07;101535.06;;;25.52;29.24
58690;BME280;44470;53.206;-6.106;2023-04-26T08:41:44;101569.44;;;25.74;29.06
58690;BME280;44470;53.206;-6.106;2023-04-26T08:44:13;101569.53;;;25.99;29.54
58690;BME280;44470;53.206;-6.106;2023-04-26T08:49:40;101543.25;;;26.33;28.77
58690;BME280;44470;53.206;-6.106;2023-04-26T08:52:09;101564.97;;;26.57;28.57
58690;BME280;44470;53.206;-6.106;2023-04-26T08:54:37;101548.34;;;26.42;29.18
58690;BME280;44470;53.206;-6.106;2023-04-26T08:57:03;101560.38;;;26.59;28.75
58690;BME280;44470;53.206;-6.106;2023-04-26T08:59:29;101561.47;;;26.78;29.39
58690;BME280;44470;53.206;-6.106;2023-04-26T09:01:56;101563.72;;;26.65;29.24
58690;BME280;44470;53.206;-6.106;2023-04-26T09:04:22;101555.75;;;26.62;28.93
58690;BME280;44470;53.206;-6.106;2023-04-26T09:06:49;101561.72;;;26.45;28.85
58690;BME280;44470;53.206;-6.106;2023-04-26T09:09:18;101520.25;;;26.22;29.14
58690;BME280;44470;53.206;-6.106;2023-04-26T09:11:56;101564.13;;;26.54;29.29
58690;BME280;44470;53.206;-6.106;2023-04-26T09:14:22;101571.28;;;26.55;29.29
58690;BME280;44470;53.206;-6.106;2023-04-26T09:16:49;101577.13;;;26.68;28.81
58690;BME280;44470;53.206;-6.106;2023-04-26T09:19:16;101566.50;;;26.64;29.24
58690;BME280;44470;53.206;-6.106;2023-04-26T09:21:44;101561.44;;;26.80;29.04
58690;BME280;44470;53.206;-6.106;2023-04-26T09:24:10;101580.88;;;26.64;29.08
58690;BME280;44470;53.206;-6.106;2023-04-26T09:26:35;101575.56;;;26.61;28.92
58690;BME280;44470;53.206;-6.106;2023-04-26T09:31:46;101571.78;;;26.67;28.92
58690;BME280;44470;53.206;-6.106;2023-04-26T09:34:13;101585.31;;;26.92;28.69
58690;BME280;44470;53.206;-6.106;2023-04-26T09:36:54;101581.72;;;26.92;28.67
58690;BME280;44470;53.206;-6.106;2023-04-26T09:39:39;101580.72;;;26.42;29.19
58690;BME280;44470;53.206;-6.106;2023-04-26T09:42:06;101579.38;;;26.55;29.07
58690;BME280;44470;53.206;-6.106;2023-04-26T09:44:31;101582.09;;;26.55;29.24
58690;BME280;44470;53.206;-6.106;2023-04-26T09:47:05;101581.53;;;26.71;28.70
58690;BME280;44470;53.206;-6.106;2023-04-26T09:49:41;101526.03;;;26.37;28.84
58690;BME280;44470;53.206;-6.106;2023-04-26T09:52:08;101570.50;;;26.77;28.86
58690;BME280;44470;53.206;-6.106;2023-04-26T09:54:53;101574.72;;;26.61;28.67
58690;BME280;44470;53.206;-6.106;2023-04-26T09:57:20;101544.81;;;26.40;29.44
58690;BME280;44470;53.206;-6.106;2023-04-26T09:59:50;101593.34;;;26.94;28.46
58690;BME280;44470;53.206;-6.106;2023-04-26T10:02:21;101593.38;;;27.43;29.00
58690;BME280;44470;53.206;-6.106;2023-04-26T10:04:49;101586.28;;;27.64;28.42
58690;BME280;44470;53.206;-6.106;2023-04-26T10:07:17;101598.31;;;27.55;28.73
58690;BME280;44470;53.206;-6.106;2023-04-26T10:09:43;101547.72;;;27.81;28.03
58690;BME280;44470;53.206;-6.106;2023-04-26T10:12:10;101592.59;;;28.32;27.45
58690;BME280;44470;53.206;-6.106;2023-04-26T10:14:36;101592.16;;;28.42;27.48
58690;BME280;44470;53.206;-6.106;2023-04-26T10:17:03;101589.22;;;28.47;27.48
58690;BME280;44470;53.206;-6.106;2023-04-26T10:19:29;101585.44;;;28.51;27.45
58690;BME280;44470;53.206;-6.106;2023-04-26T10:22:00;101573.66;;;28.52;27.60
58690;BME280;44470;53.206;-6.106;2023-04-26T10:24:27;101581.66;;;28.55;27.81
58690;BME280;44470;53.206;-6.106;2023-04-26T10:26:53;101578.66;;;28.62;27.62
58690;BME280;44470;53.206;-6.106;2023-04-26T10:29:22;101578.56;;;28.65;27.46
58690;BME280;44470;53.206;-6.106;2023-04-26T10:34:27;101575.06;;;28.83;27.24
58690;BME280;44470;53.206;-6.106;2023-04-26T10:39:32;101570.28;;;29.09;26.86
58690;BME280;44470;53.206;-6.106;2023-04-26T10:44:49;101562.56;;;29.00;26.99
58690;BME280;44470;53.206;-6.106;2023-04-26T10:47:32;101568.50;;;29.08;27.03
58690;BME280;44470;53.206;-6.106;2023-04-26T10:50:02;101557.91;;;29.04;27.03
58690;BME280;44470;53.206;-6.106;2023-04-26T10:52:28;101565.00;;;29.06;27.03
58690;BME280;44470;53.206;-6.106;2023-04-26T10:58:45;101563.22;;;29.05;27.20
58690;BME280;44470;53.206;-6.106;2023-04-26T11:03:42;101565.75;;;28.48;27.55
58690;BME280;44470;53.206;-6.106;2023-04-26T11:06:11;101481.28;;;27.96;27.14
58690;BME280;44470;53.206;-6.106;2023-04-26T11:08:40;101565.75;;;28.48;26.96
58690;BME280;44470;53.206;-6.106;2023-04-26T11:11:09;101567.91;;;28.39;26.85
58690;BME280;44470;53.206;-6.106;2023-04-26T11:16:04;101563.94;;;28.26;27.31
58690;BME280;44470;53.206;-6.106;2023-04-26T11:18:31;101569.88;;;28.36;27.45
58690;BME280;44470;53.206;-6.106;2023-04-26T11:20:57;101542.50;;;28.21;27.04
58690;BME280;44470;53.206;-6.106;2023-04-26T11:23:24;101563.81;;;28.29;27.72
58690;BME280;44470;53.206;-6.106;2023-04-26T11:25:49;101569.72;;;28.18;27.79
58690;BME280;44470;53.206;-6.106;2023-04-26T11:28:17;101565.78;;;28.25;27.12
58690;BME280;44470;53.206;-6.106;2023-04-26T11:30:43;101569.06;;;28.34;26.65
58690;BME280;44470;53.206;-6.106;2023-04-26T11:33:18;101564.72;;;28.30;26.81
58690;BME280;44470;53.206;-6.106;2023-04-26T11:35:51;101569.22;;;27.62;25.79
58690;BME280;44470;53.206;-6.106;2023-04-26T11:38:20;101562.94;;;26.89;25.44
58690;BME280;44470;53.206;-6.106;2023-04-26T11:41:01;101574.88;;;26.29;25.77
58690;BME280;44470;53.206;-6.106;2023-04-26T11:43:37;101577.13;;;27.19;25.99
58690;BME280;44470;53.206;-6.106;2023-04-26T11:46:07;101585.38;;;27.64;25.84
58690;BME280;44470;53.206;-6.106;2023-04-26T11:48:35;101581.09;;;27.80;25.93
58690;BME280;44470;53.206;-6.106;2023-04-26T11:51:03;101577.84;;;27.94;25.69
58690;BME280;44470;53.206;-6.106;2023-04-26T11:53:39;101560.94;;;27.89;26.03
58690;BME280;44470;53.206;-6.106;2023-04-26T11:56:18;101585.44;;;28.07;26.50
58690;BME280;44470;53.206;-6.106;2023-04-26T11:58:49;101571.50;;;27.95;26.12
58690;BME280;44470;53.206;-6.106;2023-04-26T12:01:26;101585.44;;;28.07;25.98
58690;BME280;44470;53.206;-6.106;2023-04-26T12:03:53;101563.25;;;27.98;26.05
58690;BME280;44470;53.206;-6.106;2023-04-26T12:06:19;101557.28;;;27.90;25.88
58690;BME280;44470;53.206;-6.106;2023-04-26T12:08:49;101589.53;;;28.19;25.91
58690;BME280;44470;53.206;-6.106;2023-04-26T12:11:18;101594.28;;;28.12;26.07
58690;BME280;44470;53.206;-6.106;2023-04-26T12:13:45;101583.81;;;28.03;26.11
58690;BME280;44470;53.206;-6.106;2023-04-26T12:16:14;101582.50;;;26.68;25.11
58690;BME280;44470;53.206;-6.106;2023-04-26T12:18:40;101592.16;;;26.23;25.13
58690;BME280;44470;53.206;-6.106;2023-04-26T12:21:06;101584.97;;;25.65;25.38
58690;BME280;44470;53.206;-6.106;2023-04-26T12:23:38;101596.22;;;25.50;25.47
58690;BME280;44470;53.206;-6.106;2023-04-26T12:26:05;101592.00;;;25.08;26.39
58690;BME280;44470;53.206;-6.106;2023-04-26T12:28:31;101551.88;;;24.64;26.53
58690;BME280;44470;53.206;-6.106;2023-04-26T12:30:57;101597.34;;;25.09;25.79
58690;BME280;44470;53.206;-6.106;2023-04-26T12:33:23;101605.91;;;25.24;26.33
58690;BME280;44470;53.206;-6.106;2023-04-26T12:35:49;101600.00;;;26.31;25.46
58690;BME280;44470;53.206;-6.106;2023-04-26T12:38:15;101517.19;;;26.33;25.36
58690;BME280;44470;53.206;-6.106;2023-04-26T12:40:41;101597.44;;;27.06;25.14
58690;BME280;44470;53.206;-6.106;2023-04-26T12:43:07;101595.06;;;27.22;25.29
58690;BME280;44470;53.206;-6.106;2023-04-26T12:45:33;101587.88;;;27.45;25.34
58690;BME280;44470;53.206;-6.106;2023-04-26T12:47:58;101596.28;;;27.62;25.73
58690;BME280;44470;53.206;-6.106;2023-04-26T12:50:24;101596.84;;;27.70;25.57
58690;BME280;44470;53.206;-6.106;2023-04-26T12:52:50;101578.28;;;27.61;26.06
58690;BME280;44470;53.206;-6.106;2023-04-26T12:55:16;101597.13;;;27.87;25.56
58690;BME280;44470;53.206;-6.106;2023-04-26T12:57:43;101592.31;;;27.93;25.21
58690;BME280;44470;53.206;-6.106;2023-04-26T13:00:30;101600.19;;;27.99;25.65
58690;BME280;44470;53.206;-6.106;2023-04-26T13:02:56;101575.41;;;27.88;25.58